sensor_id;sensor_type;location;lat;lon;timestamp;temperature;humidity
25046;DHT22;13044;49.304;12.840;2023-02-28T00:01:33;-0.80;99.90
25046;DHT22;13044;49.304;12.840;2023-02-28T00:04:00;-0.80;99.90
25046;DHT22;13044;49.304;12.840;2023-02-28T00:06:27;-0.80;99.90
25046;DHT22;13044;49.304;12.840;2023-02-28T00:08:54;-0.80;99.90
25046;DHT22;13044;49.304;12.840;2023-02-28T00:11:21;-0.80;99.90
25046;DHT22;13044;49.304;12.840;2023-02-28T00:13:48;-0.80;99.90
25046;DHT22;13044;49.304;12.840;2023-02-28T00:16:21;-0.80;99.90
25046;DHT22;13044;49.304;12.840;2023-02-28T00:18:49;-0.80;99.90
25046;DHT22;13044;49.304;12.840;2023-02-28T00:21:18;-0.80;99.90
25046;DHT22;13044;49.304;12.840;2023-02-28T00:23:46;-0.80;99.90
25046;DHT22;13044;49.304;12.840;2023-02-28T00:26:14;-0.90;99.90
25046;DHT22;13044;49.304;12.840;2023-02-28T00:28:41;-0.80;99.90
25046;DHT22;13044;49.304;12.840;2023-02-28T00:31:08;-0.80;99.90
25046;DHT22;13044;49.304;12.840;2023-02-28T00:33:35;-0.80;99.90
25046;DHT22;13044;49.304;12.840;2023-02-28T00:36:10;-0.80;99.90
25046;DHT22;13044;49.304;12.840;2023-02-28T00:38:38;-0.80;99.90
25046;DHT22;13044;49.304;12.840;2023-02-28T00:41:06;-0.70;99.90
25046;DHT22;13044;49.304;12.840;2023-02-28T00:43:35;-0.70;99.90
25046;DHT22;13044;49.304;12.840;2023-02-28T00:46:04;-0.70;99.90
25046;DHT22;13044;49.304;12.840;2023-02-28T00:48:31;-0.70;99.90
25046;DHT22;13044;49.304;12.840;2023-02-28T00:50:59;-0.80;99.90
25046;DHT22;13044;49.304;12.840;2023-02-28T00:53:26;-0.80;99.90
25046;DHT22;13044;49.304;12.840;2023-02-28T00:55:53;-0.80;99.90
25046;DHT22;13044;49.304;12.840;2023-02-28T00:58:20;-0.70;99.90
25046;DHT22;13044;49.304;12.840;2023-02-28T01:00:47;-0.70;99.90
25046;DHT22;13044;49.304;12.840;2023-02-28T01:03:17;-0.60;99.90
25046;DHT22;13044;49.304;12.840;2023-02-28T01:05:46;-0.60;99.90
25046;DHT22;13044;49.304;12.840;2023-02-28T01:08:14;-0.60;99.90
25046;DHT22;13044;49.304;12.840;2023-02-28T01:10:42;-0.60;99.90
25046;DHT22;13044;49.304;12.840;2023-02-28T01:13:09;-0.50;99.90
25046;DHT22;13044;49.304;12.840;2023-02-28T01:15:41;-0.60;99.90
25046;DHT22;13044;49.304;12.840;2023-02-28T01:18:13;-0.50;99.90
25046;DHT22;13044;49.304;12.840;2023-02-28T01:20:40;-0.40;99.90
25046;DHT22;13044;49.304;12.840;2023-02-28T01:23:06;-0.50;99.90
25046;DHT22;13044;49.304;12.840;2023-02-28T01:25:36;-0.50;99.90
25046;DHT22;13044;49.304;12.840;2023-02-28T01:28:05;-0.50;99.90
25046;DHT22;13044;49.304;12.840;2023-02-28T01:30:32;-0.60;99.90
25046;DHT22;13044;49.304;12.840;2023-02-28T01:33:00;-0.60;99.90
25046;DHT22;13044;49.304;12.840;2023-02-28T01:35:26;-0.60;99.90
25046;DHT22;13044;49.304;12.840;2023-02-28T01:37:53;-0.60;99.90
25046;DHT22;13044;49.304;12.840;2023-02-28T01:40:20;-0.70;99.90
25046;DHT22;13044;49.304;12.840;2023-02-28T01:42:48;-0.60;99.90
25046;DHT22;13044;49.304;12.840;2023-02-28T01:45:31;-0.60;99.90
25046;DHT22;13044;49.304;12.840;2023-02-28T01:48:07;-0.60;99.90
25046;DHT22;13044;49.304;12.840;2023-02-28T01:50:40;-0.60;99.90
25046;DHT22;13044;49.304;12.840;2023-02-28T01:53:14;-0.60;99.90
25046;DHT22;13044;49.304;12.840;2023-02-28T01:55:48;-0.60;99.90
25046;DHT22;13044;49.304;12.840;2023-02-28T01:58:16;-0.60;99.90
25046;DHT22;13044;49.304;12.840;2023-02-28T02:00:43;-0.60;99.90
25046;DHT22;13044;49.304;12.840;2023-02-28T02:03:13;-0.60;99.90
25046;DHT22;13044;49.304;12.840;2023-02-28T02:05:45;-0.60;99.90
25046;DHT22;13044;49.304;12.840;2023-02-28T02:08:20;-0.60;99.90
25046;DHT22;13044;49.304;12.840;2023-02-28T02:10:59;-0.60;99.90
25046;DHT22;13044;49.304;12.840;2023-02-28T02:25:48;-0.70;99.90
25046;DHT22;13044;49.304;12.840;2023-02-28T02:34:47;-0.70;99.90
25046;DHT22;13044;49.304;12.840;2023-02-28T02:37:40;-0.70;99.90
25046;DHT22;13044;49.304;12.840;2023-02-28T02:40:19;-0.80;99.90
25046;DHT22;13044;49.304;12.840;2023-02-28T02:43:15;-0.80;99.90
25046;DHT22;13044;49.304;12.840;2023-02-28T02:45:51;-0.80;99.90
25046;DHT22;13044;49.304;12.840;2023-02-28T02:48:25;-0.80;99.90
25046;DHT22;13044;49.304;12.840;2023-02-28T02:50:59;-0.80;99.90
25046;DHT22;13044;49.304;12.840;2023-02-28T02:53:34;-0.80;99.90
25046;DHT22;13044;49.304;12.840;2023-02-28T02:56:03;-0.80;99.90
25046;DHT22;13044;49.304;12.840;2023-02-28T02:58:35;-0.80;99.90
25046;DHT22;13044;49.304;12.840;2023-02-28T03:01:11;-0.80;99.90
25046;DHT22;13044;49.304;12.840;2023-02-28T03:03:41;-0.80;99.90
25046;DHT22;13044;49.304;12.840;2023-02-28T03:06:09;-0.80;99.90
25046;DHT22;13044;49.304;12.840;2023-02-28T03:08:37;-0.80;99.90
25046;DHT22;13044;49.304;12.840;2023-02-28T03:11:12;-0.80;99.90
25046;DHT22;13044;49.304;12.840;2023-02-28T03:23:00;-0.80;99.90
25046;DHT22;13044;49.304;12.840;2023-02-28T03:28:43;-0.80;99.90
25046;DHT22;13044;49.304;12.840;2023-02-28T03:31:37;-0.80;99.90
25046;DHT22;13044;49.304;12.840;2023-02-28T03:34:23;-0.70;99.90
25046;DHT22;13044;49.304;12.840;2023-02-28T03:36:57;-0.70;99.90
25046;DHT22;13044;49.304;12.840;2023-02-28T03:42:08;-0.70;99.90
25046;DHT22;13044;49.304;12.840;2023-02-28T03:44:39;-0.60;99.90
25046;DHT22;13044;49.304;12.840;2023-02-28T03:47:12;-0.60;99.90
25046;DHT22;13044;49.304;12.840;2023-02-28T03:50:05;-0.60;99.90
25046;DHT22;13044;49.304;12.840;2023-02-28T03:52:38;-0.50;99.90
25046;DHT22;13044;49.304;12.840;2023-02-28T03:55:14;-0.50;99.90
25046;DHT22;13044;49.304;12.840;2023-02-28T03:58:17;-0.40;99.90
25046;DHT22;13044;49.304;12.840;2023-02-28T04:00:57;-0.40;99.90
25046;DHT22;13044;49.304;12.840;2023-02-28T04:03:36;-0.40;99.90
25046;DHT22;13044;49.304;12.840;2023-02-28T04:06:06;-0.40;99.90
25046;DHT22;13044;49.304;12.840;2023-02-28T04:08:34;-0.40;99.90
25046;DHT22;13044;49.304;12.840;2023-02-28T04:11:17;-0.40;99.90
25046;DHT22;13044;49.304;12.840;2023-02-28T04:13:54;-0.50;99.90
25046;DHT22;13044;49.304;12.840;2023-02-28T04:16:22;-0.50;99.90
25046;DHT22;13044;49.304;12.840;2023-02-28T04:19:04;-0.50;99.90
25046;DHT22;13044;49.304;12.840;2023-02-28T04:24:17;-0.40;99.90
25046;DHT22;13044;49.304;12.840;2023-02-28T04:26:53;-0.40;99.90
25046;DHT22;13044;49.304;12.840;2023-02-28T04:29:30;-0.50;99.90
25046;DHT22;13044;49.304;12.840;2023-02-28T04:32:01;-0.60;99.90
25046;DHT22;13044;49.304;12.840;2023-02-28T04:34:31;-0.60;99.90
25046;DHT22;13044;49.304;12.840;2023-02-28T04:36:59;-0.50;99.90
25046;DHT22;13044;49.304;12.840;2023-02-28T04:39:42;-0.50;99.90
25046;DHT22;13044;49.304;12.840;2023-02-28T04:42:10;-0.60;99.90
25046;DHT22;13044;49.304;12.840;2023-02-28T04:44:37;-0.50;99.90
25046;DHT22;13044;49.304;12.840;2023-02-28T04:47:04;-0.60;99.90
25046;DHT22;13044;49.304;12.840;2023-02-28T04:49:31;-0.60;99.90
25046;DHT22;13044;49.304;12.840;2023-02-28T04:51:58;-0.60;99.90
25046;DHT22;13044;49.304;12.840;2023-02-28T04:54:25;-0.60;99.90
25046;DHT22;13044;49.304;12.840;2023-02-28T04:56:52;-0.60;99.90
25046;DHT22;13044;49.304;12.840;2023-02-28T04:59:20;-0.70;99.90
25046;DHT22;13044;49.304;12.840;2023-02-28T05:01:48;-0.80;99.90
25046;DHT22;13044;49.304;12.840;2023-02-28T05:04:15;-0.80;99.90
25046;DHT22;13044;49.304;12.840;2023-02-28T05:06:43;-0.70;99.90
25046;DHT22;13044;49.304;12.840;2023-02-28T05:09:11;-0.70;99.90
25046;DHT22;13044;49.304;12.840;2023-02-28T05:11:39;-0.80;99.90
25046;DHT22;13044;49.304;12.840;2023-02-28T05:14:11;-0.80;99.90
25046;DHT22;13044;49.304;12.840;2023-02-28T05:16:39;-0.80;99.90
25046;DHT22;13044;49.304;12.840;2023-02-28T05:19:06;-0.80;99.90
25046;DHT22;13044;49.304;12.840;2023-02-28T05:21:38;-0.80;99.90
25046;DHT22;13044;49.304;12.840;2023-02-28T05:24:10;-0.90;99.90
25046;DHT22;13044;49.304;12.840;2023-02-28T05:26:42;-0.80;99.90
25046;DHT22;13044;49.304;12.840;2023-02-28T05:29:10;-0.90;99.90
25046;DHT22;13044;49.304;12.840;2023-02-28T05:31:38;-0.90;99.90
25046;DHT22;13044;49.304;12.840;2023-02-28T05:34:05;-0.90;99.90
25046;DHT22;13044;49.304;12.840;2023-02-28T05:36:32;-0.90;99.90
25046;DHT22;13044;49.304;12.840;2023-02-28T05:38:59;-0.90;99.90
25046;DHT22;13044;49.304;12.840;2023-02-28T05:41:26;-1.00;99.90
25046;DHT22;13044;49.304;12.840;2023-02-28T05:43:54;-0.90;99.90
25046;DHT22;13044;49.304;12.840;2023-02-28T05:46:21;-0.90;99.90
25046;DHT22;13044;49.304;12.840;2023-02-28T05:48:48;-1.00;99.90
25046;DHT22;13044;49.304;12.840;2023-02-28T05:51:16;-0.90;99.90
25046;DHT22;13044;49.304;12.840;2023-02-28T05:53:43;-0.90;99.90
25046;DHT22;13044;49.304;12.840;2023-02-28T05:56:11;-1.00;99.90
25046;DHT22;13044;49.304;12.840;2023-02-28T05:58:37;-1.00;99.90
25046;DHT22;13044;49.304;12.840;2023-02-28T06:01:22;-0.90;99.90
25046;DHT22;13044;49.304;12.840;2023-02-28T06:03:50;-0.90;99.90
25046;DHT22;13044;49.304;12.840;2023-02-28T06:06:18;-0.90;99.90
25046;DHT22;13044;49.304;12.840;2023-02-28T06:08:45;-0.80;99.90
25046;DHT22;13044;49.304;12.840;2023-02-28T06:11:14;-0.80;99.90
25046;DHT22;13044;49.304;12.840;2023-02-28T06:13:41;-0.80;99.90
25046;DHT22;13044;49.304;12.840;2023-02-28T06:16:10;-0.70;99.90
25046;DHT22;13044;49.304;12.840;2023-02-28T06:18:38;-0.70;99.90
25046;DHT22;13044;49.304;12.840;2023-02-28T06:21:05;-0.60;99.90
25046;DHT22;13044;49.304;12.840;2023-02-28T06:23:32;-0.60;99.90
25046;DHT22;13044;49.304;12.840;2023-02-28T06:25:59;-0.60;99.90
25046;DHT22;13044;49.304;12.840;2023-02-28T06:28:26;-0.60;99.90
25046;DHT22;13044;49.304;12.840;2023-02-28T06:30:53;-0.60;99.90
25046;DHT22;13044;49.304;12.840;2023-02-28T06:33:20;-0.60;99.90
25046;DHT22;13044;49.304;12.840;2023-02-28T06:35:50;-0.50;99.90
25046;DHT22;13044;49.304;12.840;2023-02-28T06:38:18;-0.50;99.90
25046;DHT22;13044;49.304;12.840;2023-02-28T06:40:54;-0.40;99.90
25046;DHT22;13044;49.304;12.840;2023-02-28T06:43:22;-0.50;99.90
25046;DHT22;13044;49.304;12.840;2023-02-28T06:45:55;-0.40;99.90
25046;DHT22;13044;49.304;12.840;2023-02-28T06:48:23;-0.30;99.90
25046;DHT22;13044;49.304;12.840;2023-02-28T06:50:51;-0.20;99.90
25046;DHT22;13044;49.304;12.840;2023-02-28T06:53:18;-0.30;99.90
25046;DHT22;13044;49.304;12.840;2023-02-28T06:55:45;-0.20;99.90
25046;DHT22;13044;49.304;12.840;2023-02-28T06:58:12;-0.30;99.90
25046;DHT22;13044;49.304;12.840;2023-02-28T07:00:43;-0.30;99.90
25046;DHT22;13044;49.304;12.840;2023-02-28T07:03:11;-0.40;99.90
25046;DHT22;13044;49.304;12.840;2023-02-28T07:05:39;-0.40;99.90
25046;DHT22;13044;49.304;12.840;2023-02-28T07:08:06;-0.30;99.90
25046;DHT22;13044;49.304;12.840;2023-02-28T07:10:34;-0.30;99.90
25046;DHT22;13044;49.304;12.840;2023-02-28T07:13:01;-0.20;99.90
25046;DHT22;13044;49.304;12.840;2023-02-28T07:15:28;-0.20;99.90
25046;DHT22;13044;49.304;12.840;2023-02-28T07:17:54;-0.20;99.90
25046;DHT22;13044;49.304;12.840;2023-02-28T07:20:23;-0.20;99.90
25046;DHT22;13044;49.304;12.840;2023-02-28T07:22:52;-0.10;99.90
25046;DHT22;13044;49.304;12.840;2023-02-28T07:25:25;0.10;99.90
25046;DHT22;13044;49.304;12.840;2023-02-28T07:27:55;0.00;99.90
25046;DHT22;13044;49.304;12.840;2023-02-28T07:30:23;0.00;99.90
25046;DHT22;13044;49.304;12.840;2023-02-28T07:32:50;0.10;99.90
25046;DHT22;13044;49.304;12.840;2023-02-28T07:35:18;0.20;99.90
25046;DHT22;13044;49.304;12.840;2023-02-28T07:37:45;0.30;99.90
25046;DHT22;13044;49.304;12.840;2023-02-28T07:40:15;0.40;99.90
25046;DHT22;13044;49.304;12.840;2023-02-28T07:42:42;0.50;99.90
25046;DHT22;13044;49.304;12.840;2023-02-28T07:45:10;0.70;99.90
25046;DHT22;13044;49.304;12.840;2023-02-28T07:47:39;0.60;99.90
25046;DHT22;13044;49.304;12.840;2023-02-28T07:50:09;0.50;99.90
25046;DHT22;13044;49.304;12.840;2023-02-28T07:52:38;0.70;99.90
25046;DHT22;13044;49.304;12.840;2023-02-28T07:55:07;0.90;99.90
25046;DHT22;13044;49.304;12.840;2023-02-28T07:57:37;0.90;99.90
25046;DHT22;13044;49.304;12.840;2023-02-28T08:00:08;1.10;99.90
25046;DHT22;13044;49.304;12.840;2023-02-28T08:02:37;1.20;99.90
25046;DHT22;13044;49.304;12.840;2023-02-28T08:05:06;1.20;99.90
25046;DHT22;13044;49.304;12.840;2023-02-28T08:07:35;1.20;99.90
25046;DHT22;13044;49.304;12.840;2023-02-28T08:10:02;1.20;99.90
25046;DHT22;13044;49.304;12.840;2023-02-28T08:12:33;1.20;99.90
25046;DHT22;13044;49.304;12.840;2023-02-28T08:15:01;1.30;99.90
25046;DHT22;13044;49.304;12.840;2023-02-28T08:17:29;1.40;99.90
25046;DHT22;13044;49.304;12.840;2023-02-28T08:19:59;1.30;99.90
25046;DHT22;13044;49.304;12.840;2023-02-28T08:22:26;1.30;99.90
25046;DHT22;13044;49.304;12.840;2023-02-28T08:24:53;1.50;99.90
25046;DHT22;13044;49.304;12.840;2023-02-28T08:27:20;1.60;99.90
25046;DHT22;13044;49.304;12.840;2023-02-28T08:29:48;1.60;99.90
25046;DHT22;13044;49.304;12.840;2023-02-28T08:32:15;1.60;99.90
25046;DHT22;13044;49.304;12.840;2023-02-28T08:34:55;1.70;99.90
25046;DHT22;13044;49.304;12.840;2023-02-28T08:37:23;1.30;99.90
25046;DHT22;13044;49.304;12.840;2023-02-28T08:39:50;1.10;99.90
25046;DHT22;13044;49.304;12.840;2023-02-28T08:42:19;1.10;99.90
25046;DHT22;13044;49.304;12.840;2023-02-28T08:44:46;1.20;99.90
25046;DHT22;13044;49.304;12.840;2023-02-28T08:47:13;1.40;99.90
25046;DHT22;13044;49.304;12.840;2023-02-28T08:49:41;1.50;99.90
25046;DHT22;13044;49.304;12.840;2023-02-28T08:52:09;1.40;99.90
25046;DHT22;13044;49.304;12.840;2023-02-28T08:54:37;1.50;99.90
25046;DHT22;13044;49.304;12.840;2023-02-28T08:57:04;1.60;99.90
25046;DHT22;13044;49.304;12.840;2023-02-28T08:59:32;1.70;99.90
25046;DHT22;13044;49.304;12.840;2023-02-28T09:01:59;1.70;99.90
25046;DHT22;13044;49.304;12.840;2023-02-28T09:04:27;1.80;99.90
25046;DHT22;13044;49.304;12.840;2023-02-28T09:06:57;1.90;99.90
25046;DHT22;13044;49.304;12.840;2023-02-28T09:09:25;1.70;99.90
25046;DHT22;13044;49.304;12.840;2023-02-28T09:11:55;1.80;99.90
25046;DHT22;13044;49.304;12.840;2023-02-28T09:14:24;1.90;99.90
25046;DHT22;13044;49.304;12.840;2023-02-28T09:16:51;2.10;99.90
25046;DHT22;13044;49.304;12.840;2023-02-28T09:19:18;2.10;99.90
25046;DHT22;13044;49.304;12.840;2023-02-28T09:21:46;2.00;99.90
25046;DHT22;13044;49.304;12.840;2023-02-28T09:24:13;2.00;99.90
25046;DHT22;13044;49.304;12.840;2023-02-28T09:26:42;1.80;99.90
25046;DHT22;13044;49.304;12.840;2023-02-28T09:29:33;1.80;99.90
25046;DHT22;13044;49.304;12.840;2023-02-28T09:32:02;1.70;99.90
25046;DHT22;13044;49.304;12.840;2023-02-28T09:34:29;1.80;99.90
25046;DHT22;13044;49.304;12.840;2023-02-28T09:36:58;2.00;99.90
25046;DHT22;13044;49.304;12.840;2023-02-28T09:39:25;2.10;99.90
25046;DHT22;13044;49.304;12.840;2023-02-28T09:41:54;2.10;99.90
25046;DHT22;13044;49.304;12.840;2023-02-28T09:44:40;2.20;99.90
25046;DHT22;13044;49.304;12.840;2023-02-28T09:49:47;2.30;99.90
25046;DHT22;13044;49.304;12.840;2023-02-28T09:52:21;2.50;99.90
25046;DHT22;13044;49.304;12.840;2023-02-28T09:54:50;2.20;99.90
25046;DHT22;13044;49.304;12.840;2023-02-28T10:00:15;2.50;99.90
25046;DHT22;13044;49.304;12.840;2023-02-28T10:05:59;2.70;99.90
25046;DHT22;13044;49.304;12.840;2023-02-28T10:08:45;3.00;99.90
25046;DHT22;13044;49.304;12.840;2023-02-28T10:11:18;3.00;99.40
25046;DHT22;13044;49.304;12.840;2023-02-28T10:13:57;3.00;99.90
25046;DHT22;13044;49.304;12.840;2023-02-28T10:16:41;3.10;99.90
25046;DHT22;13044;49.304;12.840;2023-02-28T10:22:16;3.70;99.90
25046;DHT22;13044;49.304;12.840;2023-02-28T10:25:19;3.70;96.30
25046;DHT22;13044;49.304;12.840;2023-02-28T10:27:50;3.90;97.10
25046;DHT22;13044;49.304;12.840;2023-02-28T10:30:21;4.00;97.40
25046;DHT22;13044;49.304;12.840;2023-02-28T10:32:51;4.30;98.60
25046;DHT22;13044;49.304;12.840;2023-02-28T10:35:25;4.30;94.80
25046;DHT22;13044;49.304;12.840;2023-02-28T10:38:00;4.20;96.40
25046;DHT22;13044;49.304;12.840;2023-02-28T10:40:34;4.40;99.90
25046;DHT22;13044;49.304;12.840;2023-02-28T10:43:11;4.50;97.00
25046;DHT22;13044;49.304;12.840;2023-02-28T10:48:43;4.00;96.20
25046;DHT22;13044;49.304;12.840;2023-02-28T10:51:19;4.00;97.50
25046;DHT22;13044;49.304;12.840;2023-02-28T10:53:54;4.20;96.90
25046;DHT22;13044;49.304;12.840;2023-02-28T10:56:28;4.00;96.90
25046;DHT22;13044;49.304;12.840;2023-02-28T10:59:23;4.00;95.90
25046;DHT22;13044;49.304;12.840;2023-02-28T11:01:55;4.10;96.50
25046;DHT22;13044;49.304;12.840;2023-02-28T11:07:00;4.00;98.30
25046;DHT22;13044;49.304;12.840;2023-02-28T11:09:53;3.90;96.40
25046;DHT22;13044;49.304;12.840;2023-02-28T11:12:31;4.00;98.30
25046;DHT22;13044;49.304;12.840;2023-02-28T11:20:34;3.80;96.30
25046;DHT22;13044;49.304;12.840;2023-02-28T11:23:02;3.50;95.90
25046;DHT22;13044;49.304;12.840;2023-02-28T11:25:36;3.50;95.60
25046;DHT22;13044;49.304;12.840;2023-02-28T11:28:08;3.60;96.90
25046;DHT22;13044;49.304;12.840;2023-02-28T11:33:42;3.70;99.80
25046;DHT22;13044;49.304;12.840;2023-02-28T11:36:15;3.80;96.20
25046;DHT22;13044;49.304;12.840;2023-02-28T11:38:56;3.90;96.80
25046;DHT22;13044;49.304;12.840;2023-02-28T11:53:50;4.00;95.50
25046;DHT22;13044;49.304;12.840;2023-02-28T11:56:38;4.00;95.10
25046;DHT22;13044;49.304;12.840;2023-02-28T12:10:27;4.30;93.80
25046;DHT22;13044;49.304;12.840;2023-02-28T12:21:57;4.60;94.10
25046;DHT22;13044;49.304;12.840;2023-02-28T12:27:46;4.50;93.10
25046;DHT22;13044;49.304;12.840;2023-02-28T12:32:54;4.30;93.00
25046;DHT22;13044;49.304;12.840;2023-02-28T12:36:18;4.20;92.60
25046;DHT22;13044;49.304;12.840;2023-02-28T12:38:36;4.00;93.40
25046;DHT22;13044;49.304;12.840;2023-02-28T12:41:26;4.30;93.60
25046;DHT22;13044;49.304;12.840;2023-02-28T12:44:11;4.20;92.50
25046;DHT22;13044;49.304;12.840;2023-02-28T12:46:50;4.30;94.70
25046;DHT22;13044;49.304;12.840;2023-02-28T12:52:13;4.50;92.20
25046;DHT22;13044;49.304;12.840;2023-02-28T12:54:52;4.60;91.90
25046;DHT22;13044;49.304;12.840;2023-02-28T12:57:50;4.30;92.60
25046;DHT22;13044;49.304;12.840;2023-02-28T13:00:42;4.40;92.20
25046;DHT22;13044;49.304;12.840;2023-02-28T13:03:32;4.60;92.40
25046;DHT22;13044;49.304;12.840;2023-02-28T13:09:15;4.50;92.00
25046;DHT22;13044;49.304;12.840;2023-02-28T13:11:48;4.70;93.30
25046;DHT22;13044;49.304;12.840;2023-02-28T13:14:28;4.90;91.80
25046;DHT22;13044;49.304;12.840;2023-02-28T13:22:41;5.20;93.50
25046;DHT22;13044;49.304;12.840;2023-02-28T13:28:03;5.10;92.00
25046;DHT22;13044;49.304;12.840;2023-02-28T13:33:34;5.30;91.30
25046;DHT22;13044;49.304;12.840;2023-02-28T13:36:29;5.40;92.60
25046;DHT22;13044;49.304;12.840;2023-02-28T13:38:59;5.50;92.70
25046;DHT22;13044;49.304;12.840;2023-02-28T13:44:07;5.40;93.00
25046;DHT22;13044;49.304;12.840;2023-02-28T13:47:23;5.40;92.50
25046;DHT22;13044;49.304;12.840;2023-02-28T13:49:29;5.40;91.70
25046;DHT22;13044;49.304;12.840;2023-02-28T14:06:32;5.30;90.90
25046;DHT22;13044;49.304;12.840;2023-02-28T14:18:02;5.10;90.90
25046;DHT22;13044;49.304;12.840;2023-02-28T14:20:33;5.20;91.80
25046;DHT22;13044;49.304;12.840;2023-02-28T14:32:10;5.20;91.40
25046;DHT22;13044;49.304;12.840;2023-02-28T14:34:55;5.10;91.20
25046;DHT22;13044;49.304;12.840;2023-02-28T14:37:32;5.00;90.70
25046;DHT22;13044;49.304;12.840;2023-02-28T14:40:00;4.90;91.50
25046;DHT22;13044;49.304;12.840;2023-02-28T14:42:33;4.90;92.70
25046;DHT22;13044;49.304;12.840;2023-02-28T14:45:01;5.00;93.20
25046;DHT22;13044;49.304;12.840;2023-02-28T14:47:32;5.00;92.70
25046;DHT22;13044;49.304;12.840;2023-02-28T14:50:01;5.10;92.10
25046;DHT22;13044;49.304;12.840;2023-02-28T14:52:32;5.10;92.20
25046;DHT22;13044;49.304;12.840;2023-02-28T14:55:02;5.00;91.10
25046;DHT22;13044;49.304;12.840;2023-02-28T14:57:40;5.10;92.60
25046;DHT22;13044;49.304;12.840;2023-02-28T15:00:35;4.70;91.10
25046;DHT22;13044;49.304;12.840;2023-02-28T15:06:00;4.70;91.90
25046;DHT22;13044;49.304;12.840;2023-02-28T15:08:31;4.80;92.20
25046;DHT22;13044;49.304;12.840;2023-02-28T15:11:15;4.50;91.90
25046;DHT22;13044;49.304;12.840;2023-02-28T15:13:53;4.50;92.70
25046;DHT22;13044;49.304;12.840;2023-02-28T15:16:31;4.40;92.80
25046;DHT22;13044;49.304;12.840;2023-02-28T15:19:11;4.70;93.00
25046;DHT22;13044;49.304;12.840;2023-02-28T15:21:46;4.80;92.70
25046;DHT22;13044;49.304;12.840;2023-02-28T15:26:57;4.60;93.80
25046;DHT22;13044;49.304;12.840;2023-02-28T15:29:29;4.40;94.40
25046;DHT22;13044;49.304;12.840;2023-02-28T15:32:05;4.40;93.80
25046;DHT22;13044;49.304;12.840;2023-02-28T15:39:53;4.20;94.40
25046;DHT22;13044;49.304;12.840;2023-02-28T15:42:28;4.20;94.50
25046;DHT22;13044;49.304;12.840;2023-02-28T15:44:56;4.10;94.50
25046;DHT22;13044;49.304;12.840;2023-02-28T15:47:26;4.20;94.60
25046;DHT22;13044;49.304;12.840;2023-02-28T15:50:02;4.20;95.50
25046;DHT22;13044;49.304;12.840;2023-02-28T15:52:38;4.20;94.60
25046;DHT22;13044;49.304;12.840;2023-02-28T15:55:11;4.20;95.20
25046;DHT22;13044;49.304;12.840;2023-02-28T15:57:54;4.20;95.20
25046;DHT22;13044;49.304;12.840;2023-02-28T16:00:27;4.10;95.90
25046;DHT22;13044;49.304;12.840;2023-02-28T16:02:56;4.10;96.00
25046;DHT22;13044;49.304;12.840;2023-02-28T16:05:28;4.10;96.10
25046;DHT22;13044;49.304;12.840;2023-02-28T16:08:06;4.10;97.20
25046;DHT22;13044;49.304;12.840;2023-02-28T16:10:39;3.90;96.40
25046;DHT22;13044;49.304;12.840;2023-02-28T16:13:09;3.90;96.80
25046;DHT22;13044;49.304;12.840;2023-02-28T16:15:43;3.90;97.20
25046;DHT22;13044;49.304;12.840;2023-02-28T16:18:12;3.80;96.60
25046;DHT22;13044;49.304;12.840;2023-02-28T16:20:41;3.80;97.30
25046;DHT22;13044;49.304;12.840;2023-02-28T16:23:11;3.90;99.20
25046;DHT22;13044;49.304;12.840;2023-02-28T16:25:42;3.80;98.60
25046;DHT22;13044;49.304;12.840;2023-02-28T16:28:27;3.80;99.90
25046;DHT22;13044;49.304;12.840;2023-02-28T16:31:05;3.80;99.20
25046;DHT22;13044;49.304;12.840;2023-02-28T16:33:34;3.80;99.10
25046;DHT22;13044;49.304;12.840;2023-02-28T16:36:01;3.80;99.20
25046;DHT22;13044;49.304;12.840;2023-02-28T16:38:28;3.80;99.30
25046;DHT22;13044;49.304;12.840;2023-02-28T16:40:57;3.70;99.20
25046;DHT22;13044;49.304;12.840;2023-02-28T16:43:27;3.70;98.70
25046;DHT22;13044;49.304;12.840;2023-02-28T16:45:57;3.70;99.40
25046;DHT22;13044;49.304;12.840;2023-02-28T16:48:27;3.60;99.30
25046;DHT22;13044;49.304;12.840;2023-02-28T16:50:54;3.60;98.80
25046;DHT22;13044;49.304;12.840;2023-02-28T16:53:21;3.60;99.60
25046;DHT22;13044;49.304;12.840;2023-02-28T16:55:48;3.60;99.90
25046;DHT22;13044;49.304;12.840;2023-02-28T16:58:17;3.60;99.70
25046;DHT22;13044;49.304;12.840;2023-02-28T17:00:48;3.60;99.90
25046;DHT22;13044;49.304;12.840;2023-02-28T17:03:26;3.60;99.90
25046;DHT22;13044;49.304;12.840;2023-02-28T17:05:58;3.60;99.90
25046;DHT22;13044;49.304;12.840;2023-02-28T17:08:26;3.50;99.90
25046;DHT22;13044;49.304;12.840;2023-02-28T17:10:56;3.50;99.90
25046;DHT22;13044;49.304;12.840;2023-02-28T17:13:23;3.40;99.90
25046;DHT22;13044;49.304;12.840;2023-02-28T17:15:50;3.40;99.90
25046;DHT22;13044;49.304;12.840;2023-02-28T17:18:19;3.50;99.90
25046;DHT22;13044;49.304;12.840;2023-02-28T17:20:48;3.50;99.70
25046;DHT22;13044;49.304;12.840;2023-02-28T17:23:16;3.40;99.90
25046;DHT22;13044;49.304;12.840;2023-02-28T17:25:43;3.40;99.90
25046;DHT22;13044;49.304;12.840;2023-02-28T17:28:23;3.30;99.90
25046;DHT22;13044;49.304;12.840;2023-02-28T17:30:50;3.30;99.90
25046;DHT22;13044;49.304;12.840;2023-02-28T17:33:17;3.30;99.90
25046;DHT22;13044;49.304;12.840;2023-02-28T17:35:44;3.30;99.90
25046;DHT22;13044;49.304;12.840;2023-02-28T17:38:16;3.30;99.90
25046;DHT22;13044;49.304;12.840;2023-02-28T17:40:45;3.20;99.90
25046;DHT22;13044;49.304;12.840;2023-02-28T17:43:12;3.20;99.90
25046;DHT22;13044;49.304;12.840;2023-02-28T17:45:41;3.20;99.90
25046;DHT22;13044;49.304;12.840;2023-02-28T17:48:11;3.30;99.90
25046;DHT22;13044;49.304;12.840;2023-02-28T17:50:39;3.20;99.90
25046;DHT22;13044;49.304;12.840;2023-02-28T17:53:06;3.00;99.90
25046;DHT22;13044;49.304;12.840;2023-02-28T17:55:35;3.00;99.90
25046;DHT22;13044;49.304;12.840;2023-02-28T17:58:02;3.00;99.90
25046;DHT22;13044;49.304;12.840;2023-02-28T18:00:30;3.10;99.90
25046;DHT22;13044;49.304;12.840;2023-02-28T18:02:59;3.00;99.90
25046;DHT22;13044;49.304;12.840;2023-02-28T18:05:26;3.00;99.90
25046;DHT22;13044;49.304;12.840;2023-02-28T18:07:53;3.10;99.90
25046;DHT22;13044;49.304;12.840;2023-02-28T18:10:21;3.10;99.90
25046;DHT22;13044;49.304;12.840;2023-02-28T18:12:49;3.10;99.90
25046;DHT22;13044;49.304;12.840;2023-02-28T18:15:18;3.00;99.90
25046;DHT22;13044;49.304;12.840;2023-02-28T18:17:48;3.00;99.90
25046;DHT22;13044;49.304;12.840;2023-02-28T18:20:16;3.00;99.90
25046;DHT22;13044;49.304;12.840;2023-02-28T18:22:43;3.00;99.90
25046;DHT22;13044;49.304;12.840;2023-02-28T18:25:11;2.90;99.90
25046;DHT22;13044;49.304;12.840;2023-02-28T18:27:43;3.00;99.90
25046;DHT22;13044;49.304;12.840;2023-02-28T18:30:21;2.90;99.90
25046;DHT22;13044;49.304;12.840;2023-02-28T18:32:48;2.90;99.90
25046;DHT22;13044;49.304;12.840;2023-02-28T18:35:16;2.90;99.90
25046;DHT22;13044;49.304;12.840;2023-02-28T18:38:06;2.90;99.90